sensor_id;sensor_type;location;lat;lon;timestamp;temperature;humidity
49549;DHT22;35450;44.518;7.466;2023-07-29T00:01:21;22.50;93.40
49549;DHT22;35450;44.518;7.466;2023-07-29T00:04:25;22.30;93.70
49549;DHT22;35450;44.518;7.466;2023-07-29T00:07:29;22.30;93.80
49549;DHT22;35450;44.518;7.466;2023-07-29T00:10:36;22.30;93.80
49549;DHT22;35450;44.518;7.466;2023-07-29T00:13:40;22.40;93.70
49549;DHT22;35450;44.518;7.466;2023-07-29T00:16:44;22.40;93.70
49549;DHT22;35450;44.518;7.466;2023-07-29T00:19:48;22.30;93.80
49549;DHT22;35450;44.518;7.466;2023-07-29T00:22:52;22.30;93.80
49549;DHT22;35450;44.518;7.466;2023-07-29T00:26:01;22.10;93.90
49549;DHT22;35450;44.518;7.466;2023-07-29T00:29:04;22.10;94.00
49549;DHT22;35450;44.518;7.466;2023-07-29T00:32:08;22.30;93.90
49549;DHT22;35450;44.518;7.466;2023-07-29T00:35:12;22.40;93.90
49549;DHT22;35450;44.518;7.466;2023-07-29T00:38:16;22.40;93.80
49549;DHT22;35450;44.518;7.466;2023-07-29T00:41:21;22.20;93.70
49549;DHT22;35450;44.518;7.466;2023-07-29T00:44:26;22.30;93.80
49549;DHT22;35450;44.518;7.466;2023-07-29T00:47:30;22.30;93.80
49549;DHT22;35450;44.518;7.466;2023-07-29T00:50:34;22.30;94.00
49549;DHT22;35450;44.518;7.466;2023-07-29T00:53:38;22.10;94.10
49549;DHT22;35450;44.518;7.466;2023-07-29T00:56:44;22.10;94.30
49549;DHT22;35450;44.518;7.466;2023-07-29T00:59:50;22.10;94.40
49549;DHT22;35450;44.518;7.466;2023-07-29T01:02:54;22.10;94.40
49549;DHT22;35450;44.518;7.466;2023-07-29T01:12:34;22.20;94.40
49549;DHT22;35450;44.518;7.466;2023-07-29T01:18:58;22.10;94.50
49549;DHT22;35450;44.518;7.466;2023-07-29T01:22:07;22.10;94.40
49549;DHT22;35450;44.518;7.466;2023-07-29T01:25:11;22.10;94.40
49549;DHT22;35450;44.518;7.466;2023-07-29T01:28:16;22.10;94.40
49549;DHT22;35450;44.518;7.466;2023-07-29T01:31:33;22.10;94.40
49549;DHT22;35450;44.518;7.466;2023-07-29T01:35:21;22.10;94.40
49549;DHT22;35450;44.518;7.466;2023-07-29T01:38:30;21.90;94.70
49549;DHT22;35450;44.518;7.466;2023-07-29T01:41:37;21.80;95.00
49549;DHT22;35450;44.518;7.466;2023-07-29T01:44:41;21.80;95.00
49549;DHT22;35450;44.518;7.466;2023-07-29T01:47:46;21.90;94.80
49549;DHT22;35450;44.518;7.466;2023-07-29T01:50:53;22.00;94.70
49549;DHT22;35450;44.518;7.466;2023-07-29T01:53:56;22.00;94.80
49549;DHT22;35450;44.518;7.466;2023-07-29T01:57:03;22.00;94.80
49549;DHT22;35450;44.518;7.466;2023-07-29T02:00:07;22.00;94.90
49549;DHT22;35450;44.518;7.466;2023-07-29T02:03:18;22.00;94.90
49549;DHT22;35450;44.518;7.466;2023-07-29T02:06:22;21.80;94.90
49549;DHT22;35450;44.518;7.466;2023-07-29T02:09:27;21.90;94.90
49549;DHT22;35450;44.518;7.466;2023-07-29T02:12:31;22.00;94.90
49549;DHT22;35450;44.518;7.466;2023-07-29T02:15:35;22.00;94.90
49549;DHT22;35450;44.518;7.466;2023-07-29T02:18:39;22.00;94.90
49549;DHT22;35450;44.518;7.466;2023-07-29T02:21:43;22.00;94.90
49549;DHT22;35450;44.518;7.466;2023-07-29T02:24:47;21.80;95.10
49549;DHT22;35450;44.518;7.466;2023-07-29T02:27:50;21.90;95.10
49549;DHT22;35450;44.518;7.466;2023-07-29T02:31:30;21.80;95.00
49549;DHT22;35450;44.518;7.466;2023-07-29T02:34:34;21.90;95.10
49549;DHT22;35450;44.518;7.466;2023-07-29T02:37:38;21.90;94.90
49549;DHT22;35450;44.518;7.466;2023-07-29T02:40:42;22.00;94.80
49549;DHT22;35450;44.518;7.466;2023-07-29T02:43:49;22.00;94.90
49549;DHT22;35450;44.518;7.466;2023-07-29T02:46:53;21.90;95.10
49549;DHT22;35450;44.518;7.466;2023-07-29T02:49:59;21.80;95.10
49549;DHT22;35450;44.518;7.466;2023-07-29T02:53:03;21.80;95.20
49549;DHT22;35450;44.518;7.466;2023-07-29T02:56:07;21.80;95.30
49549;DHT22;35450;44.518;7.466;2023-07-29T02:59:12;21.80;95.30
49549;DHT22;35450;44.518;7.466;2023-07-29T03:02:17;21.80;95.20
49549;DHT22;35450;44.518;7.466;2023-07-29T03:05:21;21.90;95.10
49549;DHT22;35450;44.518;7.466;2023-07-29T03:08:24;21.80;95.10
49549;DHT22;35450;44.518;7.466;2023-07-29T03:11:28;21.80;95.30
49549;DHT22;35450;44.518;7.466;2023-07-29T03:14:32;21.80;95.30
49549;DHT22;35450;44.518;7.466;2023-07-29T03:17:36;21.60;95.30
49549;DHT22;35450;44.518;7.466;2023-07-29T03:20:40;21.70;95.40
49549;DHT22;35450;44.518;7.466;2023-07-29T03:23:44;21.60;95.40
49549;DHT22;35450;44.518;7.466;2023-07-29T03:26:49;21.50;95.60
49549;DHT22;35450;44.518;7.466;2023-07-29T03:29:53;21.40;95.60
49549;DHT22;35450;44.518;7.466;2023-07-29T03:32:57;21.50;95.70
49549;DHT22;35450;44.518;7.466;2023-07-29T03:36:00;21.60;95.50
49549;DHT22;35450;44.518;7.466;2023-07-29T03:39:04;21.60;95.40
49549;DHT22;35450;44.518;7.466;2023-07-29T03:42:08;21.60;95.30
49549;DHT22;35450;44.518;7.466;2023-07-29T03:45:13;21.60;95.40
49549;DHT22;35450;44.518;7.466;2023-07-29T03:48:17;21.50;95.50
49549;DHT22;35450;44.518;7.466;2023-07-29T03:51:20;21.50;95.40
49549;DHT22;35450;44.518;7.466;2023-07-29T03:54:25;21.60;95.20
49549;DHT22;35450;44.518;7.466;2023-07-29T03:57:29;21.60;95.30
49549;DHT22;35450;44.518;7.466;2023-07-29T04:00:33;21.60;95.30
49549;DHT22;35450;44.518;7.466;2023-07-29T04:03:37;21.70;95.20
49549;DHT22;35450;44.518;7.466;2023-07-29T04:06:41;21.70;95.10
49549;DHT22;35450;44.518;7.466;2023-07-29T04:09:45;21.70;95.10
49549;DHT22;35450;44.518;7.466;2023-07-29T04:12:50;21.70;95.10
49549;DHT22;35450;44.518;7.466;2023-07-29T04:15:54;21.50;95.30
49549;DHT22;35450;44.518;7.466;2023-07-29T04:18:58;21.50;95.30
49549;DHT22;35450;44.518;7.466;2023-07-29T04:22:02;21.40;95.50
49549;DHT22;35450;44.518;7.466;2023-07-29T04:25:06;21.50;95.50
49549;DHT22;35450;44.518;7.466;2023-07-29T04:28:10;21.50;95.50
49549;DHT22;35450;44.518;7.466;2023-07-29T04:31:14;21.50;95.50
49549;DHT22;35450;44.518;7.466;2023-07-29T04:34:19;21.20;96.00
49549;DHT22;35450;44.518;7.466;2023-07-29T04:37:23;21.00;96.00
49549;DHT22;35450;44.518;7.466;2023-07-29T04:40:28;21.20;96.10
49549;DHT22;35450;44.518;7.466;2023-07-29T04:43:32;21.30;95.80
49549;DHT22;35450;44.518;7.466;2023-07-29T04:46:36;21.30;95.80
49549;DHT22;35450;44.518;7.466;2023-07-29T04:49:40;21.30;95.80
49549;DHT22;35450;44.518;7.466;2023-07-29T04:52:45;21.40;95.70
49549;DHT22;35450;44.518;7.466;2023-07-29T04:55:49;21.50;95.60
49549;DHT22;35450;44.518;7.466;2023-07-29T04:58:52;21.60;95.40
49549;DHT22;35450;44.518;7.466;2023-07-29T05:01:57;21.60;95.50
49549;DHT22;35450;44.518;7.466;2023-07-29T05:05:00;21.60;95.50
49549;DHT22;35450;44.518;7.466;2023-07-29T05:08:05;21.50;95.70
49549;DHT22;35450;44.518;7.466;2023-07-29T05:11:09;21.50;95.70
49549;DHT22;35450;44.518;7.466;2023-07-29T05:14:13;21.50;95.70
49549;DHT22;35450;44.518;7.466;2023-07-29T05:17:17;21.50;95.80
49549;DHT22;35450;44.518;7.466;2023-07-29T05:20:22;21.60;96.00
49549;DHT22;35450;44.518;7.466;2023-07-29T05:23:26;21.70;96.10
49549;DHT22;35450;44.518;7.466;2023-07-29T05:26:30;21.70;95.80
49549;DHT22;35450;44.518;7.466;2023-07-29T05:29:34;21.70;95.60
49549;DHT22;35450;44.518;7.466;2023-07-29T05:32:38;21.80;95.40
49549;DHT22;35450;44.518;7.466;2023-07-29T05:35:43;21.90;95.50
49549;DHT22;35450;44.518;7.466;2023-07-29T05:38:47;22.00;95.40
49549;DHT22;35450;44.518;7.466;2023-07-29T05:41:51;22.10;95.20
49549;DHT22;35450;44.518;7.466;2023-07-29T05:44:55;22.20;94.80
49549;DHT22;35450;44.518;7.466;2023-07-29T05:47:59;22.20;94.70
49549;DHT22;35450;44.518;7.466;2023-07-29T05:51:03;22.30;94.80
49549;DHT22;35450;44.518;7.466;2023-07-29T05:54:09;22.30;94.70
49549;DHT22;35450;44.518;7.466;2023-07-29T05:57:13;22.30;94.70
49549;DHT22;35450;44.518;7.466;2023-07-29T06:00:17;22.30;94.70
49549;DHT22;35450;44.518;7.466;2023-07-29T06:03:22;22.40;94.70
49549;DHT22;35450;44.518;7.466;2023-07-29T06:06:28;22.40;94.90
49549;DHT22;35450;44.518;7.466;2023-07-29T06:09:32;22.50;94.70
49549;DHT22;35450;44.518;7.466;2023-07-29T06:12:36;22.60;94.60
49549;DHT22;35450;44.518;7.466;2023-07-29T06:15:40;22.60;94.70
49549;DHT22;35450;44.518;7.466;2023-07-29T06:18:44;22.70;94.80
49549;DHT22;35450;44.518;7.466;2023-07-29T06:21:48;22.70;94.70
49549;DHT22;35450;44.518;7.466;2023-07-29T06:24:52;22.80;94.20
49549;DHT22;35450;44.518;7.466;2023-07-29T06:27:56;22.80;94.00
49549;DHT22;35450;44.518;7.466;2023-07-29T06:31:02;22.90;93.80
49549;DHT22;35450;44.518;7.466;2023-07-29T06:34:06;23.00;93.80
49549;DHT22;35450;44.518;7.466;2023-07-29T06:37:10;23.00;93.50
49549;DHT22;35450;44.518;7.466;2023-07-29T06:40:14;23.10;93.60
49549;DHT22;35450;44.518;7.466;2023-07-29T06:43:20;23.00;93.50
49549;DHT22;35450;44.518;7.466;2023-07-29T06:46:23;23.10;93.30
49549;DHT22;35450;44.518;7.466;2023-07-29T06:49:27;23.10;93.20
49549;DHT22;35450;44.518;7.466;2023-07-29T06:52:32;23.20;93.00
49549;DHT22;35450;44.518;7.466;2023-07-29T06:55:36;23.20;92.90
49549;DHT22;35450;44.518;7.466;2023-07-29T06:58:40;23.20;92.90
49549;DHT22;35450;44.518;7.466;2023-07-29T07:01:44;23.20;93.10
49549;DHT22;35450;44.518;7.466;2023-07-29T07:04:48;23.30;93.00
49549;DHT22;35450;44.518;7.466;2023-07-29T07:07:52;23.30;93.10
49549;DHT22;35450;44.518;7.466;2023-07-29T07:10:56;23.30;93.10
49549;DHT22;35450;44.518;7.466;2023-07-29T07:14:00;23.40;93.00
49549;DHT22;35450;44.518;7.466;2023-07-29T07:17:04;23.40;93.00
49549;DHT22;35450;44.518;7.466;2023-07-29T07:20:08;23.40;93.00
49549;DHT22;35450;44.518;7.466;2023-07-29T07:23:12;23.40;92.90
49549;DHT22;35450;44.518;7.466;2023-07-29T07:26:17;23.40;93.00
49549;DHT22;35450;44.518;7.466;2023-07-29T07:29:21;23.40;92.70
49549;DHT22;35450;44.518;7.466;2023-07-29T07:32:26;23.40;93.00
49549;DHT22;35450;44.518;7.466;2023-07-29T07:35:30;23.40;93.00
49549;DHT22;35450;44.518;7.466;2023-07-29T07:38:34;23.30;92.90
49549;DHT22;35450;44.518;7.466;2023-07-29T07:41:38;23.30;93.20
49549;DHT22;35450;44.518;7.466;2023-07-29T07:44:46;23.40;93.20
49549;DHT22;35450;44.518;7.466;2023-07-29T07:47:52;23.40;93.10
49549;DHT22;35450;44.518;7.466;2023-07-29T07:50:57;23.50;93.40
49549;DHT22;35450;44.518;7.466;2023-07-29T07:54:01;23.50;93.30
49549;DHT22;35450;44.518;7.466;2023-07-29T07:57:05;23.50;93.50
49549;DHT22;35450;44.518;7.466;2023-07-29T08:00:10;23.50;93.40
49549;DHT22;35450;44.518;7.466;2023-07-29T08:03:17;23.50;93.40
49549;DHT22;35450;44.518;7.466;2023-07-29T08:06:21;23.60;93.40
49549;DHT22;35450;44.518;7.466;2023-07-29T08:09:25;23.60;93.30
49549;DHT22;35450;44.518;7.466;2023-07-29T08:12:29;23.60;93.40
49549;DHT22;35450;44.518;7.466;2023-07-29T08:15:33;23.70;93.40
49549;DHT22;35450;44.518;7.466;2023-07-29T08:18:37;23.60;93.30
49549;DHT22;35450;44.518;7.466;2023-07-29T08:21:41;23.70;93.20
49549;DHT22;35450;44.518;7.466;2023-07-29T08:24:45;23.80;93.20
49549;DHT22;35450;44.518;7.466;2023-07-29T08:27:49;23.80;93.10
49549;DHT22;35450;44.518;7.466;2023-07-29T08:30:54;23.80;93.30
49549;DHT22;35450;44.518;7.466;2023-07-29T08:34:05;23.80;93.30
49549;DHT22;35450;44.518;7.466;2023-07-29T08:37:09;23.80;93.20
49549;DHT22;35450;44.518;7.466;2023-07-29T08:40:13;23.90;93.20
49549;DHT22;35450;44.518;7.466;2023-07-29T08:43:19;23.90;93.00
49549;DHT22;35450;44.518;7.466;2023-07-29T08:46:24;24.00;93.40
49549;DHT22;35450;44.518;7.466;2023-07-29T08:49:30;24.00;93.00
49549;DHT22;35450;44.518;7.466;2023-07-29T08:52:36;24.00;93.00
49549;DHT22;35450;44.518;7.466;2023-07-29T08:55:41;24.10;93.10
49549;DHT22;35450;44.518;7.466;2023-07-29T08:58:45;24.00;93.10
49549;DHT22;35450;44.518;7.466;2023-07-29T09:01:50;23.90;93.40
49549;DHT22;35450;44.518;7.466;2023-07-29T09:04:59;23.90;93.70
49549;DHT22;35450;44.518;7.466;2023-07-29T09:08:03;23.90;93.20
49549;DHT22;35450;44.518;7.466;2023-07-29T09:11:07;24.00;93.20
49549;DHT22;35450;44.518;7.466;2023-07-29T09:14:12;24.10;93.30
49549;DHT22;35450;44.518;7.466;2023-07-29T09:17:17;24.10;93.30
49549;DHT22;35450;44.518;7.466;2023-07-29T09:20:28;24.20;93.30
49549;DHT22;35450;44.518;7.466;2023-07-29T09:23:42;24.10;93.30
49549;DHT22;35450;44.518;7.466;2023-07-29T09:26:50;24.10;93.80
49549;DHT22;35450;44.518;7.466;2023-07-29T09:29:55;24.10;93.40
49549;DHT22;35450;44.518;7.466;2023-07-29T09:32:59;24.20;93.20
49549;DHT22;35450;44.518;7.466;2023-07-29T09:36:10;24.20;93.20
49549;DHT22;35450;44.518;7.466;2023-07-29T09:39:14;24.30;93.20
49549;DHT22;35450;44.518;7.466;2023-07-29T09:42:19;24.40;93.30
49549;DHT22;35450;44.518;7.466;2023-07-29T09:45:25;24.40;93.50
49549;DHT22;35450;44.518;7.466;2023-07-29T09:48:36;24.40;93.60
49549;DHT22;35450;44.518;7.466;2023-07-29T09:51:41;24.50;93.60
49549;DHT22;35450;44.518;7.466;2023-07-29T09:54:46;24.50;93.60
49549;DHT22;35450;44.518;7.466;2023-07-29T09:57:57;24.60;93.20
49549;DHT22;35450;44.518;7.466;2023-07-29T10:01:05;24.60;93.00
49549;DHT22;35450;44.518;7.466;2023-07-29T10:04:11;24.60;93.10
49549;DHT22;35450;44.518;7.466;2023-07-29T10:07:16;24.70;93.10
49549;DHT22;35450;44.518;7.466;2023-07-29T10:10:21;24.70;92.90
49549;DHT22;35450;44.518;7.466;2023-07-29T10:13:25;24.80;93.10
49549;DHT22;35450;44.518;7.466;2023-07-29T10:16:29;24.80;93.10
49549;DHT22;35450;44.518;7.466;2023-07-29T10:19:34;24.80;92.80
49549;DHT22;35450;44.518;7.466;2023-07-29T10:22:41;24.90;92.90
49549;DHT22;35450;44.518;7.466;2023-07-29T10:25:49;25.00;92.80
49549;DHT22;35450;44.518;7.466;2023-07-29T10:28:55;25.00;92.60
49549;DHT22;35450;44.518;7.466;2023-07-29T10:32:04;25.00;92.70
49549;DHT22;35450;44.518;7.466;2023-07-29T10:35:09;24.80;92.60
49549;DHT22;35450;44.518;7.466;2023-07-29T10:38:15;24.90;92.80
49549;DHT22;35450;44.518;7.466;2023-07-29T10:41:19;24.90;92.60
49549;DHT22;35450;44.518;7.466;2023-07-29T10:44:46;25.00;93.20
49549;DHT22;35450;44.518;7.466;2023-07-29T10:47:50;25.00;93.10
49549;DHT22;35450;44.518;7.466;2023-07-29T10:51:24;25.20;92.70
49549;DHT22;35450;44.518;7.466;2023-07-29T10:54:47;25.20;92.40
49549;DHT22;35450;44.518;7.466;2023-07-29T10:57:51;25.40;92.90
49549;DHT22;35450;44.518;7.466;2023-07-29T11:00:56;25.40;92.40
49549;DHT22;35450;44.518;7.466;2023-07-29T11:07:26;25.40;92.10
49549;DHT22;35450;44.518;7.466;2023-07-29T11:10:42;25.50;92.00
49549;DHT22;35450;44.518;7.466;2023-07-29T11:13:46;25.60;91.80
49549;DHT22;35450;44.518;7.466;2023-07-29T11:16:50;25.50;91.50
49549;DHT22;35450;44.518;7.466;2023-07-29T11:19:57;25.50;91.70
49549;DHT22;35450;44.518;7.466;2023-07-29T11:23:03;25.50;92.10
49549;DHT22;35450;44.518;7.466;2023-07-29T11:26:08;25.60;92.00
49549;DHT22;35450;44.518;7.466;2023-07-29T11:29:12;25.60;91.50
49549;DHT22;35450;44.518;7.466;2023-07-29T11:32:16;25.70;92.00
49549;DHT22;35450;44.518;7.466;2023-07-29T11:35:20;25.70;91.60
49549;DHT22;35450;44.518;7.466;2023-07-29T11:38:24;25.80;91.30
49549;DHT22;35450;44.518;7.466;2023-07-29T11:41:28;25.90;91.30
49549;DHT22;35450;44.518;7.466;2023-07-29T11:44:32;25.90;91.30
49549;DHT22;35450;44.518;7.466;2023-07-29T11:47:36;25.90;92.20
49549;DHT22;35450;44.518;7.466;2023-07-29T11:50:41;25.90;92.00
49549;DHT22;35450;44.518;7.466;2023-07-29T11:53:45;25.80;91.60
49549;DHT22;35450;44.518;7.466;2023-07-29T11:56:50;25.80;92.10
49549;DHT22;35450;44.518;7.466;2023-07-29T11:59:54;25.90;92.10
49549;DHT22;35450;44.518;7.466;2023-07-29T12:02:58;25.90;92.00
49549;DHT22;35450;44.518;7.466;2023-07-29T12:06:03;26.00;91.80
49549;DHT22;35450;44.518;7.466;2023-07-29T12:09:07;26.00;91.20
49549;DHT22;35450;44.518;7.466;2023-07-29T12:12:13;26.10;91.40
49549;DHT22;35450;44.518;7.466;2023-07-29T12:15:27;26.10;90.80
49549;DHT22;35450;44.518;7.466;2023-07-29T12:18:32;26.10;90.70
49549;DHT22;35450;44.518;7.466;2023-07-29T12:21:36;26.10;90.60
49549;DHT22;35450;44.518;7.466;2023-07-29T12:24:40;26.20;90.60
49549;DHT22;35450;44.518;7.466;2023-07-29T12:27:44;26.20;90.60
49549;DHT22;35450;44.518;7.466;2023-07-29T12:30:56;26.20;90.60
49549;DHT22;35450;44.518;7.466;2023-07-29T12:34:00;26.20;90.30
49549;DHT22;35450;44.518;7.466;2023-07-29T12:37:04;26.30;90.90
49549;DHT22;35450;44.518;7.466;2023-07-29T12:40:21;26.30;90.50
49549;DHT22;35450;44.518;7.466;2023-07-29T12:43:25;26.30;90.60
49549;DHT22;35450;44.518;7.466;2023-07-29T12:46:30;26.30;90.70
49549;DHT22;35450;44.518;7.466;2023-07-29T12:49:34;26.30;91.10
49549;DHT22;35450;44.518;7.466;2023-07-29T12:52:38;26.40;90.90
49549;DHT22;35450;44.518;7.466;2023-07-29T12:55:42;26.40;90.50
49549;DHT22;35450;44.518;7.466;2023-07-29T12:58:46;26.40;90.10
49549;DHT22;35450;44.518;7.466;2023-07-29T13:01:50;26.40;90.40
49549;DHT22;35450;44.518;7.466;2023-07-29T13:04:54;26.40;90.20
49549;DHT22;35450;44.518;7.466;2023-07-29T13:07:58;26.40;90.50
49549;DHT22;35450;44.518;7.466;2023-07-29T13:11:04;26.50;90.50
49549;DHT22;35450;44.518;7.466;2023-07-29T13:14:07;26.50;90.20
49549;DHT22;35450;44.518;7.466;2023-07-29T13:17:11;26.50;90.60
49549;DHT22;35450;44.518;7.466;2023-07-29T13:20:15;26.60;90.70
49549;DHT22;35450;44.518;7.466;2023-07-29T13:23:20;26.50;90.40
49549;DHT22;35450;44.518;7.466;2023-07-29T13:26:24;26.60;90.40
49549;DHT22;35450;44.518;7.466;2023-07-29T13:29:28;26.70;90.80
49549;DHT22;35450;44.518;7.466;2023-07-29T13:32:31;26.70;90.80
49549;DHT22;35450;44.518;7.466;2023-07-29T13:35:35;26.80;90.60
49549;DHT22;35450;44.518;7.466;2023-07-29T13:38:40;26.80;90.70
49549;DHT22;35450;44.518;7.466;2023-07-29T13:41:45;26.90;90.90
49549;DHT22;35450;44.518;7.466;2023-07-29T13:44:48;26.80;91.00
49549;DHT22;35450;44.518;7.466;2023-07-29T13:47:52;26.80;91.00
49549;DHT22;35450;44.518;7.466;2023-07-29T13:50:56;26.80;90.60
49549;DHT22;35450;44.518;7.466;2023-07-29T13:54:00;26.80;90.50
49549;DHT22;35450;44.518;7.466;2023-07-29T13:57:04;26.90;90.60
49549;DHT22;35450;44.518;7.466;2023-07-29T14:00:10;27.00;90.90
49549;DHT22;35450;44.518;7.466;2023-07-29T14:03:16;27.10;90.90
49549;DHT22;35450;44.518;7.466;2023-07-29T14:06:21;27.10;90.90
49549;DHT22;35450;44.518;7.466;2023-07-29T14:09:25;27.20;90.60
49549;DHT22;35450;44.518;7.466;2023-07-29T14:12:30;27.20;90.60
49549;DHT22;35450;44.518;7.466;2023-07-29T14:15:34;27.30;90.40
49549;DHT22;35450;44.518;7.466;2023-07-29T14:18:38;27.30;90.20
49549;DHT22;35450;44.518;7.466;2023-07-29T14:21:42;27.30;89.80
49549;DHT22;35450;44.518;7.466;2023-07-29T14:24:46;27.30;89.50
49549;DHT22;35450;44.518;7.466;2023-07-29T14:27:50;27.40;89.80
49549;DHT22;35450;44.518;7.466;2023-07-29T14:30:54;27.40;89.40
49549;DHT22;35450;44.518;7.466;2023-07-29T14:33:57;27.40;90.20
49549;DHT22;35450;44.518;7.466;2023-07-29T14:37:02;27.50;90.00
49549;DHT22;35450;44.518;7.466;2023-07-29T14:40:06;27.60;89.40
49549;DHT22;35450;44.518;7.466;2023-07-29T14:43:11;27.60;89.60
49549;DHT22;35450;44.518;7.466;2023-07-29T14:46:14;27.60;88.70
49549;DHT22;35450;44.518;7.466;2023-07-29T14:49:19;27.70;88.60
49549;DHT22;35450;44.518;7.466;2023-07-29T14:52:23;27.70;88.90
49549;DHT22;35450;44.518;7.466;2023-07-29T14:55:27;27.60;88.90
49549;DHT22;35450;44.518;7.466;2023-07-29T14:58:31;27.50;89.60
49549;DHT22;35450;44.518;7.466;2023-07-29T15:01:35;27.60;90.40
49549;DHT22;35450;44.518;7.466;2023-07-29T15:04:39;27.70;90.50
49549;DHT22;35450;44.518;7.466;2023-07-29T15:07:43;27.70;90.10
49549;DHT22;35450;44.518;7.466;2023-07-29T15:10:47;27.70;90.40
49549;DHT22;35450;44.518;7.466;2023-07-29T15:13:51;27.80;90.10
49549;DHT22;35450;44.518;7.466;2023-07-29T15:16:55;27.80;90.00
49549;DHT22;35450;44.518;7.466;2023-07-29T15:19:59;27.70;90.00
49549;DHT22;35450;44.518;7.466;2023-07-29T15:23:03;27.60;90.30
49549;DHT22;35450;44.518;7.466;2023-07-29T15:26:07;27.50;90.60
49549;DHT22;35450;44.518;7.466;2023-07-29T15:29:11;27.40;90.50
49549;DHT22;35450;44.518;7.466;2023-07-29T15:32:15;27.30;90.80
49549;DHT22;35450;44.518;7.466;2023-07-29T15:35:21;27.30;90.60
49549;DHT22;35450;44.518;7.466;2023-07-29T15:38:25;27.30;90.60
49549;DHT22;35450;44.518;7.466;2023-07-29T15:41:32;27.30;90.60
49549;DHT22;35450;44.518;7.466;2023-07-29T15:44:37;27.20;90.90
49549;DHT22;35450;44.518;7.466;2023-07-29T15:47:41;27.20;91.10
49549;DHT22;35450;44.518;7.466;2023-07-29T15:50:45;27.20;91.00
49549;DHT22;35450;44.518;7.466;2023-07-29T15:53:49;27.10;90.90
49549;DHT22;35450;44.518;7.466;2023-07-29T15:56:53;27.10;90.90
49549;DHT22;35450;44.518;7.466;2023-07-29T15:59:57;27.20;90.90
49549;DHT22;35450;44.518;7.466;2023-07-29T16:03:01;27.60;90.70
49549;DHT22;35450;44.518;7.466;2023-07-29T16:06:05;28.40;89.40
49549;DHT22;35450;44.518;7.466;2023-07-29T16:09:09;28.70;88.30
49549;DHT22;35450;44.518;7.466;2023-07-29T16:12:13;28.40;88.90
49549;DHT22;35450;44.518;7.466;2023-07-29T16:15:17;28.10;89.70
49549;DHT22;35450;44.518;7.466;2023-07-29T16:18:21;27.80;90.30
49549;DHT22;35450;44.518;7.466;2023-07-29T16:21:25;27.60;90.60
49549;DHT22;35450;44.518;7.466;2023-07-29T16:24:29;27.60;90.70
49549;DHT22;35450;44.518;7.466;2023-07-29T16:27:33;27.40;90.70
49549;DHT22;35450;44.518;7.466;2023-07-29T16:30:37;27.20;91.00
49549;DHT22;35450;44.518;7.466;2023-07-29T16:33:41;27.10;91.30
49549;DHT22;35450;44.518;7.466;2023-07-29T16:36:45;27.00;91.40
49549;DHT22;35450;44.518;7.466;2023-07-29T16:39:49;26.80;91.50
49549;DHT22;35450;44.518;7.466;2023-07-29T16:42:53;26.80;91.50
49549;DHT22;35450;44.518;7.466;2023-07-29T16:45:57;26.70;91.50
49549;DHT22;35450;44.518;7.466;2023-07-29T16:49:01;26.60;91.80
49549;DHT22;35450;44.518;7.466;2023-07-29T16:52:06;26.60;91.80
49549;DHT22;35450;44.518;7.466;2023-07-29T16:55:10;26.60;92.10
49549;DHT22;35450;44.518;7.466;2023-07-29T16:58:14;26.50;92.20
49549;DHT22;35450;44.518;7.466;2023-07-29T17:01:18;26.50;92.00
49549;DHT22;35450;44.518;7.466;2023-07-29T17:04:22;26.40;92.40
49549;DHT22;35450;44.518;7.466;2023-07-29T17:07:26;26.30;92.20
49549;DHT22;35450;44.518;7.466;2023-07-29T17:10:30;26.40;92.50
49549;DHT22;35450;44.518;7.466;2023-07-29T17:13:34;26.40;92.50
49549;DHT22;35450;44.518;7.466;2023-07-29T17:16:38;26.40;92.50
49549;DHT22;35450;44.518;7.466;2023-07-29T17:19:42;26.30;92.50
49549;DHT22;35450;44.518;7.466;2023-07-29T17:22:48;26.30;92.40
49549;DHT22;35450;44.518;7.466;2023-07-29T17:25:51;26.40;92.40
49549;DHT22;35450;44.518;7.466;2023-07-29T17:28:55;26.40;92.40
49549;DHT22;35450;44.518;7.466;2023-07-29T17:32:00;26.50;92.40
49549;DHT22;35450;44.518;7.466;2023-07-29T17:35:04;26.60;92.50
49549;DHT22;35450;44.518;7.466;2023-07-29T17:38:07;26.60;92.50
49549;DHT22;35450;44.518;7.466;2023-07-29T17:41:13;26.50;92.40
49549;DHT22;35450;44.518;7.466;2023-07-29T17:44:17;26.50;92.50
49549;DHT22;35450;44.518;7.466;2023-07-29T17:47:21;26.50;93.40
49549;DHT22;35450;44.518;7.466;2023-07-29T17:50:25;26.50;93.40
49549;DHT22;35450;44.518;7.466;2023-07-29T17:53:31;26.50;93.20
49549;DHT22;35450;44.518;7.466;2023-07-29T17:56:35;26.50;93.30
49549;DHT22;35450;44.518;7.466;2023-07-29T17:59:39;26.40;93.40
49549;DHT22;35450;44.518;7.466;2023-07-29T18:02:43;26.40;93.40
49549;DHT22;35450;44.518;7.466;2023-07-29T18:05:47;26.40;93.40
49549;DHT22;35450;44.518;7.466;2023-07-29T18:08:51;26.40;93.30
49549;DHT22;35450;44.518;7.466;2023-07-29T18:11:55;26.40;93.30
49549;DHT22;35450;44.518;7.466;2023-07-29T18:14:59;26.40;93.30
49549;DHT22;35450;44.518;7.466;2023-07-29T18:18:03;26.40;93.40
49549;DHT22;35450;44.518;7.466;2023-07-29T18:21:07;26.40;93.40
49549;DHT22;35450;44.518;7.466;2023-07-29T18:24:11;26.30;93.50
49549;DHT22;35450;44.518;7.466;2023-07-29T18:27:15;26.30;93.60
49549;DHT22;35450;44.518;7.466;2023-07-29T18:30:19;26.30;93.60
49549;DHT22;35450;44.518;7.466;2023-07-29T18:33:23;26.30;93.70
49549;DHT22;35450;44.518;7.466;2023-07-29T18:36:27;26.30;93.70
49549;DHT22;35450;44.518;7.466;2023-07-29T18:39:32;26.30;93.70
49549;DHT22;35450;44.518;7.466;2023-07-29T18:42:36;26.20;94.00
49549;DHT22;35450;44.518;7.466;2023-07-29T18:45:40;26.10;94.20
49549;DHT22;35450;44.518;7.466;2023-07-29T18:48:44;26.10;94.50
49549;DHT22;35450;44.518;7.466;2023-07-29T18:51:48;25.90;94.60
49549;DHT22;35450;44.518;7.466;2023-07-29T18:54:54;25.90;94.70
49549;DHT22;35450;44.518;7.466;2023-07-29T18:57:59;25.80;94.80
49549;DHT22;35450;44.518;7.466;2023-07-29T19:01:03;25.60;95.00
49549;DHT22;35450;44.518;7.466;2023-07-29T19:04:07;25.60;95.00
49549;DHT22;35450;44.518;7.466;2023-07-29T19:07:11;25.60;95.20
49549;DHT22;35450;44.518;7.466;2023-07-29T19:10:15;25.50;95.50
49549;DHT22;35450;44.518;7.466;2023-07-29T19:13:19;25.40;95.60
49549;DHT22;35450;44.518;7.466;2023-07-29T19:16:24;25.20;95.90
49549;DHT22;35450;44.518;7.466;2023-07-29T19:19:28;25.20;96.70
49549;DHT22;35450;44.518;7.466;2023-07-29T19:22:32;25.10;96.30
49549;DHT22;35450;44.518;7.466;2023-07-29T19:25:36;25.10;96.30
49549;DHT22;35450;44.518;7.466;2023-07-29T19:28:40;25.10;96.00
49549;DHT22;35450;44.518;7.466;2023-07-29T19:31:44;25.20;96.00
49549;DHT22;35450;44.518;7.466;2023-07-29T19:34:53;25.20;96.10
49549;DHT22;35450;44.518;7.466;2023-07-29T19:37:58;25.20;96.10
49549;DHT22;35450;44.518;7.466;2023-07-29T19:41:03;25.10;96.10